createdAt,value
2018-12-05T00:01:08.580Z,93.20
2018-12-05T00:03:46.150Z,93.00
2018-12-05T00:06:23.709Z,93.00
2018-12-05T00:09:01.255Z,93.00
2018-12-05T00:11:38.760Z,92.90
2018-12-05T00:14:16.322Z,92.80
2018-12-05T00:16:53.849Z,92.60
2018-12-05T00:19:31.424Z,92.50
2018-12-05T00:22:08.952Z,92.30
2018-12-05T00:24:46.512Z,92.30
2018-12-05T00:27:24.044Z,92.20
2018-12-05T00:30:01.603Z,92.10
2018-12-05T00:32:39.124Z,92.10
2018-12-05T00:35:16.665Z,92.10
2018-12-05T00:37:54.215Z,92.10
2018-12-05T00:40:31.781Z,92.50
2018-12-05T00:43:09.319Z,92.10
2018-12-05T00:45:46.865Z,92.10
2018-12-05T00:48:24.412Z,92.10
2018-12-05T00:51:01.946Z,92.10
2018-12-05T00:53:39.505Z,92.20
2018-12-05T00:56:17.020Z,92.20
2018-12-05T00:58:54.603Z,92.10
2018-12-05T01:01:32.116Z,92.00
2018-12-05T01:04:10.005Z,92.20
2018-12-05T01:06:47.530Z,91.90
2018-12-05T01:09:25.090Z,92.00
2018-12-05T01:12:02.627Z,92.20
2018-12-05T01:14:40.218Z,92.40
2018-12-05T01:17:17.748Z,92.40
2018-12-05T01:19:55.400Z,92.50
2018-12-05T01:22:32.931Z,92.60
2018-12-05T01:25:10.464Z,92.60
2018-12-05T01:27:47.988Z,92.70
2018-12-05T01:30:25.536Z,93.00
2018-12-05T01:33:03.072Z,92.70
2018-12-05T01:35:40.670Z,92.80
2018-12-05T01:38:18.210Z,92.80
2018-12-05T01:40:55.771Z,92.80
2018-12-05T01:43:49.571Z,92.90
2018-12-05T01:46:27.120Z,93.00
2018-12-05T01:49:04.652Z,93.00
2018-12-05T01:51:42.160Z,93.10
2018-12-05T01:54:19.709Z,93.10
2018-12-05T01:56:57.242Z,93.00
2018-12-05T01:59:34.786Z,93.00
2018-12-05T02:02:12.315Z,93.10
2018-12-05T02:04:49.868Z,93.20
2018-12-05T02:07:27.390Z,93.60
2018-12-05T02:10:04.970Z,93.50
2018-12-05T02:12:42.482Z,93.70
2018-12-05T02:15:20.032Z,93.80
2018-12-05T02:17:57.586Z,94.30
2018-12-05T02:20:35.186Z,94.00
2018-12-05T02:23:12.727Z,93.90
2018-12-05T02:25:50.292Z,93.90
2018-12-05T02:28:27.918Z,93.90
2018-12-05T02:31:05.405Z,93.90
2018-12-05T02:33:42.940Z,94.00
2018-12-05T02:36:20.512Z,94.00
2018-12-05T02:38:58.052Z,94.00
2018-12-05T02:41:35.602Z,94.00
2018-12-05T02:44:13.141Z,93.90
2018-12-05T02:46:50.706Z,93.80
2018-12-05T02:49:28.281Z,93.60
2018-12-05T02:52:05.835Z,93.70
2018-12-05T02:54:43.394Z,93.80
2018-12-05T02:57:20.921Z,93.90
2018-12-05T02:59:58.490Z,94.00
2018-12-05T03:02:36.042Z,94.10
2018-12-05T03:05:13.611Z,94.10
2018-12-05T03:07:51.145Z,94.10
2018-12-05T03:10:28.709Z,94.10
2018-12-05T03:13:06.271Z,94.20
2018-12-05T03:15:45.398Z,94.20
2018-12-05T03:18:22.864Z,94.10
2018-12-05T03:21:00.405Z,94.20
2018-12-05T03:23:37.952Z,94.20
2018-12-05T03:26:15.525Z,94.30
2018-12-05T03:28:53.065Z,94.30
2018-12-05T03:31:30.627Z,94.50
2018-12-05T03:34:08.385Z,94.50
2018-12-05T03:36:45.922Z,94.60
2018-12-05T03:39:23.464Z,94.60
2018-12-05T03:42:01.027Z,94.70
2018-12-05T03:44:38.554Z,94.80
2018-12-05T03:47:16.114Z,94.80
2018-12-05T03:50:04.003Z,94.90
2018-12-05T03:52:41.558Z,94.90
2018-12-05T03:55:20.173Z,94.70
2018-12-05T03:57:56.676Z,94.70
2018-12-05T04:00:34.253Z,94.70
2018-12-05T04:03:11.821Z,94.80
2018-12-05T04:05:49.418Z,94.90
2018-12-05T04:08:27.515Z,95.10
2018-12-05T04:11:05.080Z,95.20
2018-12-05T04:13:42.606Z,95.30
2018-12-05T04:16:20.223Z,95.50
2018-12-05T04:18:57.763Z,95.60
2018-12-05T04:21:35.341Z,95.70
2018-12-05T04:24:12.877Z,95.80
2018-12-05T04:26:50.461Z,95.80
2018-12-05T04:29:27.997Z,95.80
2018-12-05T04:32:05.557Z,95.70
2018-12-05T04:34:43.110Z,95.70
2018-12-05T04:37:20.683Z,95.60
2018-12-05T04:39:58.221Z,95.70
2018-12-05T04:42:35.790Z,95.70
2018-12-05T04:45:13.320Z,95.60
2018-12-05T04:47:50.907Z,95.60
2018-12-05T04:50:28.476Z,95.60
2018-12-05T04:53:05.995Z,95.60
2018-12-05T04:55:43.549Z,95.60
2018-12-05T04:58:21.085Z,95.70
2018-12-05T05:00:58.642Z,95.70
2018-12-05T05:03:36.188Z,95.60
2018-12-05T05:06:13.851Z,95.50
2018-12-05T05:08:51.404Z,95.40
2018-12-05T05:11:28.979Z,95.40
2018-12-05T05:14:06.522Z,95.40
2018-12-05T05:16:44.091Z,95.50
2018-12-05T05:19:21.627Z,95.60
2018-12-05T05:21:59.172Z,95.60
2018-12-05T05:24:36.700Z,95.60
2018-12-05T05:27:14.269Z,95.60
2018-12-05T05:29:51.810Z,95.50
2018-12-05T05:32:29.362Z,95.50
2018-12-05T05:35:06.986Z,95.60
2018-12-05T05:37:44.572Z,95.80
2018-12-05T05:40:22.139Z,95.80
2018-12-05T05:43:02.969Z,95.90
2018-12-05T05:45:40.427Z,96.00
2018-12-05T05:48:18.126Z,96.00
2018-12-05T05:50:55.688Z,96.00
2018-12-05T05:53:33.239Z,96.10
2018-12-05T05:56:10.790Z,96.10
2018-12-05T05:58:48.362Z,96.20
2018-12-05T06:01:25.970Z,96.30
2018-12-05T06:04:07.046Z,96.30
2018-12-05T06:06:44.605Z,96.30
2018-12-05T06:09:22.152Z,96.30
2018-12-05T06:11:59.725Z,96.40
2018-12-05T06:14:37.273Z,96.40
2018-12-05T06:17:14.825Z,96.30
2018-12-05T06:19:52.364Z,96.20
2018-12-05T06:22:29.939Z,96.20
2018-12-05T06:25:08.000Z,96.00
2018-12-05T06:27:45.575Z,96.30
2018-12-05T06:30:23.107Z,96.30
2018-12-05T06:33:00.675Z,96.40
2018-12-05T06:35:38.222Z,96.40
2018-12-05T06:38:15.787Z,96.50
2018-12-05T06:40:53.343Z,96.50
2018-12-05T06:43:30.933Z,96.70
2018-12-05T06:46:08.475Z,96.80
2018-12-05T06:48:46.052Z,96.90
2018-12-05T06:51:23.666Z,96.90
2018-12-05T06:54:01.222Z,96.90
2018-12-05T06:56:38.776Z,96.80
2018-12-05T06:59:16.335Z,96.70
2018-12-05T07:01:53.884Z,96.70
2018-12-05T07:04:31.433Z,96.60
2018-12-05T07:07:08.996Z,96.60
2018-12-05T07:09:46.541Z,96.50
2018-12-05T07:12:24.114Z,96.50
2018-12-05T07:15:01.674Z,96.40
2018-12-05T07:17:39.246Z,96.30
2018-12-05T07:20:16.914Z,96.20
2018-12-05T07:22:54.487Z,96.10
2018-12-05T07:25:32.009Z,96.20
2018-12-05T07:28:09.556Z,95.80
2018-12-05T07:30:47.101Z,95.90
2018-12-05T07:33:24.654Z,95.50
2018-12-05T07:36:02.189Z,95.50
2018-12-05T07:38:39.740Z,95.50
2018-12-05T07:41:17.279Z,95.50
2018-12-05T07:43:54.861Z,95.40
2018-12-05T07:46:32.407Z,95.40
2018-12-05T07:49:09.960Z,95.40
2018-12-05T07:51:47.544Z,95.30
2018-12-05T07:54:25.099Z,95.30
2018-12-05T07:57:02.643Z,95.40
2018-12-05T07:59:40.214Z,95.30
2018-12-05T08:02:17.791Z,95.40
2018-12-05T08:04:55.319Z,95.70
2018-12-05T08:07:32.890Z,95.30
2018-12-05T08:10:10.545Z,95.30
2018-12-05T08:12:48.140Z,95.60
2018-12-05T08:15:25.705Z,95.20
2018-12-05T08:18:03.274Z,95.10
2018-12-05T08:20:40.810Z,95.40
2018-12-05T08:23:18.385Z,95.20
2018-12-05T08:25:55.922Z,95.00
2018-12-05T08:28:33.506Z,95.00
2018-12-05T08:31:11.056Z,94.90
2018-12-05T08:33:48.639Z,94.80
2018-12-05T08:36:26.225Z,94.80
2018-12-05T08:39:03.813Z,94.70
2018-12-05T08:41:41.401Z,94.60
2018-12-05T08:44:18.960Z,94.60
2018-12-05T08:46:56.517Z,94.50
2018-12-05T08:49:34.092Z,94.50
2018-12-05T08:52:11.636Z,94.50
2018-12-05T08:54:49.199Z,94.50
2018-12-05T08:57:26.787Z,94.40
2018-12-05T09:00:04.375Z,94.40
2018-12-05T09:02:41.938Z,94.40
2018-12-05T09:05:19.518Z,94.30
2018-12-05T09:07:57.080Z,94.20
2018-12-05T09:10:34.650Z,94.10
2018-12-05T09:13:12.205Z,94.00
2018-12-05T09:15:49.781Z,93.90
2018-12-05T09:18:27.350Z,93.80
2018-12-05T09:21:04.890Z,93.70
2018-12-05T09:23:42.417Z,93.60
2018-12-05T09:26:19.993Z,93.50
2018-12-05T09:28:57.541Z,93.40
2018-12-05T09:31:35.116Z,93.30
2018-12-05T09:34:12.679Z,93.20
2018-12-05T09:36:50.225Z,93.10
2018-12-05T09:39:27.890Z,93.10
2018-12-05T09:42:05.436Z,93.00
2018-12-05T09:44:43.022Z,92.90
2018-12-05T09:47:20.559Z,92.90
2018-12-05T09:49:58.119Z,92.70
2018-12-05T09:52:35.669Z,92.70
2018-12-05T09:55:13.258Z,92.50
2018-12-05T09:57:50.801Z,92.40
2018-12-05T10:00:28.356Z,92.30
2018-12-05T10:03:05.874Z,92.30
2018-12-05T10:05:43.435Z,92.20
2018-12-05T10:08:20.968Z,92.10
2018-12-05T10:10:58.517Z,92.00
2018-12-05T10:13:36.056Z,92.00
2018-12-05T10:16:13.625Z,91.90
2018-12-05T10:18:51.218Z,92.00
2018-12-05T10:21:28.759Z,91.50
2018-12-05T10:24:06.279Z,91.30
2018-12-05T10:26:43.863Z,91.20
2018-12-05T10:29:21.414Z,91.10
2018-12-05T10:31:58.941Z,90.90
2018-12-05T10:34:36.504Z,90.90
2018-12-05T10:37:14.077Z,90.90
2018-12-05T10:39:51.638Z,91.00
2018-12-05T10:42:29.159Z,90.80
2018-12-05T10:45:06.970Z,90.90
2018-12-05T10:47:44.519Z,90.40
2018-12-05T10:50:22.062Z,90.30
2018-12-05T10:52:59.575Z,90.10
2018-12-05T10:55:37.130Z,89.80
2018-12-05T10:58:14.655Z,89.10
2018-12-05T11:01:10.794Z,88.60
2018-12-05T11:03:48.323Z,88.30
2018-12-05T11:06:44.471Z,87.50
2018-12-05T11:09:40.587Z,87.00
2018-12-05T11:12:36.749Z,86.50
2018-12-05T11:15:32.892Z,85.90
2018-12-05T11:18:29.053Z,85.30
2018-12-05T11:21:25.191Z,84.60
2018-12-05T11:24:24.400Z,84.00
2018-12-05T11:27:01.917Z,83.20
2018-12-05T11:29:39.461Z,82.40
2018-12-05T11:32:17.051Z,81.80
2018-12-05T11:34:54.598Z,81.30
2018-12-05T11:37:32.126Z,80.60
2018-12-05T11:40:10.078Z,79.90
2018-12-05T11:42:47.604Z,79.00
2018-12-05T11:45:25.163Z,78.40
2018-12-05T11:48:02.686Z,77.90
2018-12-05T11:50:40.242Z,77.20
2018-12-05T11:53:17.755Z,76.70
2018-12-05T11:55:55.310Z,75.70
2018-12-05T11:58:32.829Z,74.70
2018-12-05T12:01:10.383Z,73.80
2018-12-05T12:03:47.909Z,73.30
2018-12-05T12:06:25.498Z,72.90
2018-12-05T12:09:03.013Z,72.40
2018-12-05T12:11:40.588Z,71.80
2018-12-05T12:14:18.135Z,71.60
2018-12-05T12:16:55.778Z,70.90
2018-12-05T12:19:33.360Z,70.30
2018-12-05T12:22:10.908Z,69.60
2018-12-05T12:24:48.435Z,69.30
2018-12-05T12:27:25.972Z,68.90
2018-12-05T12:30:03.538Z,68.60
2018-12-05T12:32:41.066Z,68.50
2018-12-05T12:35:18.604Z,68.30
2018-12-05T12:37:56.149Z,68.20
2018-12-05T12:40:33.704Z,67.80
2018-12-05T12:43:11.225Z,67.60
2018-12-05T12:45:48.775Z,66.90
2018-12-05T12:48:26.315Z,66.30
2018-12-05T12:51:03.865Z,65.50
2018-12-05T12:53:41.387Z,64.60
2018-12-05T12:56:18.957Z,63.70
2018-12-05T12:58:56.465Z,63.00
2018-12-05T13:01:34.024Z,62.50
2018-12-05T13:04:11.548Z,62.20
2018-12-05T13:06:49.248Z,62.00
2018-12-05T13:09:26.767Z,61.90
2018-12-05T13:12:04.401Z,62.10
2018-12-05T13:14:41.849Z,61.70
2018-12-05T13:17:19.407Z,61.50
2018-12-05T13:19:56.933Z,61.30
2018-12-05T13:22:34.531Z,61.20
2018-12-05T13:25:12.062Z,61.10
2018-12-05T13:27:49.619Z,60.90
2018-12-05T13:30:27.178Z,60.60
2018-12-05T13:33:04.700Z,60.50
2018-12-05T13:35:42.289Z,60.30
2018-12-05T13:38:19.855Z,60.40
2018-12-05T13:40:57.388Z,60.50
2018-12-05T13:43:34.939Z,60.60
2018-12-05T13:46:12.485Z,60.80
2018-12-05T13:48:50.025Z,60.70
2018-12-05T13:51:27.568Z,60.80
2018-12-05T13:54:05.103Z,61.20
2018-12-05T13:56:42.670Z,61.60
2018-12-05T13:59:20.209Z,62.30
2018-12-05T14:01:57.772Z,62.90
2018-12-05T14:04:35.294Z,63.20
2018-12-05T14:07:12.880Z,63.20
2018-12-05T14:09:50.419Z,63.30
2018-12-05T14:12:39.889Z,63.40
2018-12-05T14:15:17.405Z,63.30
2018-12-05T14:18:01.197Z,63.50
2018-12-05T14:20:32.491Z,63.80
2018-12-05T14:23:10.040Z,64.00
2018-12-05T14:25:47.596Z,64.10
2018-12-05T14:28:25.125Z,64.60
2018-12-05T14:31:02.689Z,65.10
2018-12-05T14:33:40.197Z,65.70
2018-12-05T14:36:17.732Z,66.30
2018-12-05T14:38:55.267Z,67.00
2018-12-05T14:41:32.801Z,67.70
2018-12-05T14:44:10.351Z,68.70
2018-12-05T14:46:47.897Z,69.60
2018-12-05T14:49:25.440Z,70.60
2018-12-05T14:52:02.980Z,71.50
2018-12-05T14:54:40.492Z,72.00
2018-12-05T14:57:18.046Z,73.20
2018-12-05T14:59:55.569Z,74.00
2018-12-05T15:02:33.135Z,74.80
2018-12-05T15:05:10.666Z,75.50
2018-12-05T15:07:48.218Z,76.20
2018-12-05T15:10:25.756Z,76.90
2018-12-05T15:13:03.311Z,77.50
2018-12-05T15:15:40.818Z,78.20
2018-12-05T15:18:18.361Z,78.70
2018-12-05T15:20:56.155Z,79.20
2018-12-05T15:23:33.725Z,79.70
2018-12-05T15:26:11.243Z,80.30
2018-12-05T15:28:48.801Z,80.40
2018-12-05T15:31:26.351Z,81.00
2018-12-05T15:34:03.883Z,81.30
2018-12-05T15:36:41.429Z,81.70
2018-12-05T15:39:18.977Z,81.90
2018-12-05T15:41:56.545Z,82.30
2018-12-05T15:44:34.119Z,82.50
2018-12-05T15:47:11.662Z,82.70
2018-12-05T15:49:49.194Z,82.70
2018-12-05T15:52:26.819Z,82.80
2018-12-05T15:55:12.191Z,83.00
2018-12-05T15:57:49.750Z,83.10
2018-12-05T16:00:28.205Z,83.20
2018-12-05T16:03:10.222Z,83.40
2018-12-05T16:05:47.718Z,83.40
2018-12-05T16:08:25.264Z,83.50
2018-12-05T16:11:02.801Z,83.80
2018-12-05T16:13:40.378Z,84.00
2018-12-05T16:16:17.901Z,84.20
2018-12-05T16:18:55.443Z,84.40
2018-12-05T16:21:32.958Z,84.50
2018-12-05T16:24:10.509Z,84.80
2018-12-05T16:26:48.069Z,84.80
2018-12-05T16:29:25.594Z,84.90
2018-12-05T16:32:03.189Z,84.90
2018-12-05T16:34:40.721Z,84.90
2018-12-05T16:37:18.272Z,84.90
2018-12-05T16:39:55.800Z,84.90
2018-12-05T16:42:33.362Z,84.90
2018-12-05T16:45:11.271Z,84.80
2018-12-05T16:47:48.836Z,84.80
2018-12-05T16:50:26.401Z,84.80
2018-12-05T16:53:10.357Z,84.90
2018-12-05T16:55:47.885Z,84.90
2018-12-05T16:58:25.433Z,84.90
2018-12-05T17:01:02.957Z,84.90
2018-12-05T17:03:40.550Z,85.00
2018-12-05T17:06:18.032Z,85.80
2018-12-05T17:08:55.561Z,85.90
2018-12-05T17:11:33.265Z,85.90
2018-12-05T17:14:10.858Z,85.80
2018-12-05T17:16:48.403Z,85.80
2018-12-05T17:19:25.938Z,85.60
2018-12-05T17:22:03.492Z,85.30
2018-12-05T17:24:41.061Z,85.30
2018-12-05T17:27:18.599Z,85.50
2018-12-05T17:29:58.625Z,85.70
2018-12-05T17:32:36.486Z,86.00
2018-12-05T17:35:14.032Z,86.20
2018-12-05T17:37:51.605Z,86.30
2018-12-05T17:40:29.150Z,86.50
2018-12-05T17:43:06.735Z,86.60
2018-12-05T17:45:44.271Z,86.70
2018-12-05T17:48:21.905Z,86.90
2018-12-05T17:51:01.470Z,86.90
2018-12-05T17:53:39.097Z,86.80
2018-12-05T17:56:16.709Z,86.70
2018-12-05T17:58:54.290Z,87.40
2018-12-05T18:01:31.928Z,88.00
2018-12-05T18:04:09.525Z,87.90
2018-12-05T18:06:47.139Z,88.10
2018-12-05T18:09:24.726Z,87.80
2018-12-05T18:12:02.275Z,87.70
2018-12-05T18:14:41.072Z,87.00
2018-12-05T18:17:23.183Z,85.90
2018-12-05T18:20:01.719Z,85.10
2018-12-05T18:22:39.821Z,84.50
2018-12-05T18:25:17.835Z,84.20
2018-12-05T18:27:56.053Z,83.90
2018-12-05T18:30:34.233Z,83.70
2018-12-05T18:33:12.326Z,83.40
2018-12-05T18:35:50.286Z,83.10
2018-12-05T18:38:28.413Z,83.00
2018-12-05T18:41:06.228Z,82.90
2018-12-05T18:43:46.098Z,82.80
2018-12-05T18:46:24.137Z,82.80
2018-12-05T18:49:02.408Z,82.70
2018-12-05T18:51:40.738Z,82.60
2018-12-05T18:54:18.792Z,82.50
2018-12-05T18:56:57.840Z,82.50
2018-12-05T18:59:35.752Z,82.40
2018-12-05T19:02:13.802Z,82.40
2018-12-05T19:04:51.574Z,82.40
2018-12-05T19:07:30.093Z,83.20
2018-12-05T19:10:11.161Z,82.40
2018-12-05T19:12:48.690Z,82.20
2018-12-05T19:15:26.258Z,82.20
2018-12-05T19:18:05.305Z,82.10
2018-12-05T19:20:41.430Z,82.10
2018-12-05T19:23:18.998Z,82.10
2018-12-05T19:25:56.575Z,82.10
2018-12-05T19:28:34.160Z,82.00
2018-12-05T19:31:19.224Z,82.00
2018-12-05T19:33:49.410Z,81.90
2018-12-05T19:36:27.029Z,81.80
2018-12-05T19:39:04.889Z,81.70
2018-12-05T19:41:42.438Z,81.60
2018-12-05T19:44:20.019Z,82.30
2018-12-05T19:46:57.544Z,81.40
2018-12-05T19:49:35.094Z,81.30
2018-12-05T19:52:12.623Z,81.20
2018-12-05T19:54:50.202Z,81.40
2018-12-05T19:57:27.764Z,81.20
2018-12-05T20:00:05.755Z,81.00
2018-12-05T20:02:43.716Z,80.70
2018-12-05T20:05:21.505Z,80.50
2018-12-05T20:07:59.647Z,80.30
2018-12-05T20:10:37.736Z,79.90
2018-12-05T20:13:15.637Z,79.80
2018-12-05T20:15:53.536Z,79.60
2018-12-05T20:18:31.272Z,79.60
2018-12-05T20:21:09.308Z,79.30
2018-12-05T20:23:47.088Z,79.20
2018-12-05T20:26:33.190Z,79.00
2018-12-05T20:29:11.959Z,78.80
2018-12-05T20:31:49.845Z,78.70
2018-12-05T20:34:27.823Z,78.50
2018-12-05T20:37:05.661Z,78.30
2018-12-05T20:39:43.718Z,78.10
2018-12-05T20:42:21.576Z,78.10
2018-12-05T20:44:59.589Z,77.90
2018-12-05T20:47:37.615Z,78.20
2018-12-05T20:50:16.110Z,77.70
2018-12-05T20:52:54.382Z,77.50
2018-12-05T20:55:32.175Z,77.50
2018-12-05T20:58:10.425Z,77.20
2018-12-05T21:00:48.170Z,77.10
2018-12-05T21:03:26.722Z,77.10
2018-12-05T21:06:04.615Z,76.80
2018-12-05T21:08:42.232Z,76.60
2018-12-05T21:11:20.433Z,76.40
2018-12-05T21:13:58.483Z,76.20
2018-12-05T21:16:36.494Z,76.20
2018-12-05T21:19:14.587Z,75.80
2018-12-05T21:21:52.466Z,75.70
2018-12-05T21:24:30.422Z,75.60
2018-12-05T21:27:07.967Z,75.50
2018-12-05T21:29:45.528Z,75.30
2018-12-05T21:32:23.059Z,75.10
2018-12-05T21:35:00.611Z,75.00
2018-12-05T21:37:38.140Z,74.70
2018-12-05T21:40:15.755Z,74.80
2018-12-05T21:42:53.292Z,74.40
2018-12-05T21:45:30.828Z,74.30
2018-12-05T21:48:08.351Z,74.30
2018-12-05T21:50:45.907Z,74.00
2018-12-05T21:53:23.434Z,73.90
2018-12-05T21:56:00.980Z,73.90
2018-12-05T21:58:38.509Z,73.80
2018-12-05T22:01:16.072Z,73.70
2018-12-05T22:03:53.594Z,73.60
2018-12-05T22:06:31.127Z,73.50
2018-12-05T22:09:12.421Z,73.30
2018-12-05T22:11:49.975Z,73.30
2018-12-05T22:14:27.506Z,73.20
2018-12-05T22:17:05.039Z,73.00
2018-12-05T22:19:42.577Z,73.00
2018-12-05T22:22:20.103Z,72.90
2018-12-05T22:24:57.647Z,72.80
2018-12-05T22:27:35.161Z,72.60
2018-12-05T22:30:13.354Z,72.50
2018-12-05T22:32:50.880Z,72.30
2018-12-05T22:35:28.418Z,72.20
2018-12-05T22:38:05.940Z,72.20
2018-12-05T22:40:43.472Z,72.30
2018-12-05T22:43:20.993Z,72.60
2018-12-05T22:45:58.538Z,72.30
2018-12-05T22:48:36.071Z,72.40
2018-12-05T22:51:13.618Z,72.40
2018-12-05T22:53:51.148Z,72.50
2018-12-05T22:56:28.684Z,72.40
2018-12-05T22:59:06.188Z,72.40
2018-12-05T23:01:43.738Z,72.50
2018-12-05T23:04:21.256Z,72.50
2018-12-05T23:06:58.812Z,72.60
2018-12-05T23:09:36.331Z,72.60
2018-12-05T23:12:13.863Z,72.60
2018-12-05T23:14:51.416Z,72.60
2018-12-05T23:17:28.954Z,72.70
2018-12-05T23:20:06.947Z,72.70
2018-12-05T23:22:44.502Z,72.70
2018-12-05T23:25:22.052Z,72.60
2018-12-05T23:27:59.571Z,72.70
2018-12-05T23:30:37.124Z,72.80
2018-12-05T23:33:14.652Z,73.00
2018-12-05T23:35:52.199Z,73.20
2018-12-05T23:38:29.732Z,73.30
2018-12-05T23:41:07.276Z,73.40
2018-12-05T23:43:44.803Z,73.50
2018-12-05T23:46:22.368Z,73.70
2018-12-05T23:48:59.888Z,73.70
2018-12-05T23:51:37.444Z,73.90
2018-12-05T23:54:14.978Z,73.70
2018-12-05T23:56:52.533Z,73.70
2018-12-05T23:59:30.064Z,73.60
